sensor_id;sensor_type;location;lat;lon;timestamp;temperature;humidity
70214;DHT22;60138;55.808;37.078;2022-09-09T00:04:31;5.96;73.83
70214;DHT22;60138;55.808;37.078;2022-09-09T00:07:05;5.91;73.73
70214;DHT22;60138;55.808;37.078;2022-09-09T00:09:40;5.86;73.45
70214;DHT22;60138;55.808;37.078;2022-09-09T00:12:15;5.82;74.31
70214;DHT22;60138;55.808;37.078;2022-09-09T00:17:42;5.85;73.64
70214;DHT22;60138;55.808;37.078;2022-09-09T00:20:29;5.86;73.44
70214;DHT22;60138;55.808;37.078;2022-09-09T00:23:03;5.89;73.98
70214;DHT22;60138;55.808;37.078;2022-09-09T00:25:54;5.90;74.28
70214;DHT22;60138;55.808;37.078;2022-09-09T00:28:25;5.90;75.27
70214;DHT22;60138;55.808;37.078;2022-09-09T00:30:51;5.89;75.12
70214;DHT22;60138;55.808;37.078;2022-09-09T00:33:20;5.83;74.54
70214;DHT22;60138;55.808;37.078;2022-09-09T00:35:49;5.78;74.01
70214;DHT22;60138;55.808;37.078;2022-09-09T00:38:25;5.72;74.80
70214;DHT22;60138;55.808;37.078;2022-09-09T00:40:58;5.67;75.67
70214;DHT22;60138;55.808;37.078;2022-09-09T00:43:32;5.66;74.92
70214;DHT22;60138;55.808;37.078;2022-09-09T00:46:11;5.66;74.41
70214;DHT22;60138;55.808;37.078;2022-09-09T00:48:44;5.66;74.57
70214;DHT22;60138;55.808;37.078;2022-09-09T00:54:11;5.71;74.51
70214;DHT22;60138;55.808;37.078;2022-09-09T00:56:47;5.76;74.28
70214;DHT22;60138;55.808;37.078;2022-09-09T00:59:27;5.81;74.07
70214;DHT22;60138;55.808;37.078;2022-09-09T01:01:53;5.87;73.84
70214;DHT22;60138;55.808;37.078;2022-09-09T01:04:27;5.91;73.81
70214;DHT22;60138;55.808;37.078;2022-09-09T01:07:07;5.96;73.51
70214;DHT22;60138;55.808;37.078;2022-09-09T01:15:09;5.85;73.46
70214;DHT22;60138;55.808;37.078;2022-09-09T01:18:05;5.78;73.28
70214;DHT22;60138;55.808;37.078;2022-09-09T01:26:39;5.60;73.38
70214;DHT22;60138;55.808;37.078;2022-09-09T01:29:16;5.49;74.21
70214;DHT22;60138;55.808;37.078;2022-09-09T01:31:59;5.46;73.85
70214;DHT22;60138;55.808;37.078;2022-09-09T01:34:30;5.45;73.87
70214;DHT22;60138;55.808;37.078;2022-09-09T01:37:08;5.51;74.08
70214;DHT22;60138;55.808;37.078;2022-09-09T01:39:39;5.56;73.90
70214;DHT22;60138;55.808;37.078;2022-09-09T01:42:12;5.61;74.01
70214;DHT22;60138;55.808;37.078;2022-09-09T01:44:40;5.66;73.73
70214;DHT22;60138;55.808;37.078;2022-09-09T01:47:06;5.69;73.69
70214;DHT22;60138;55.808;37.078;2022-09-09T01:49:33;5.71;73.70
70214;DHT22;60138;55.808;37.078;2022-09-09T01:52:05;5.71;74.02
70214;DHT22;60138;55.808;37.078;2022-09-09T01:54:35;5.72;73.71
70214;DHT22;60138;55.808;37.078;2022-09-09T01:57:23;5.71;73.84
70214;DHT22;60138;55.808;37.078;2022-09-09T02:08:09;5.61;73.47
70214;DHT22;60138;55.808;37.078;2022-09-09T02:11:01;5.54;73.64
70214;DHT22;60138;55.808;37.078;2022-09-09T02:14:13;5.45;73.81
70214;DHT22;60138;55.808;37.078;2022-09-09T02:16:51;5.33;74.31
70214;DHT22;60138;55.808;37.078;2022-09-09T02:19:27;5.23;74.10
70214;DHT22;60138;55.808;37.078;2022-09-09T02:22:12;5.12;73.99
70214;DHT22;60138;55.808;37.078;2022-09-09T02:24:39;5.04;73.98
70214;DHT22;60138;55.808;37.078;2022-09-09T02:27:14;4.94;74.48
70214;DHT22;60138;55.808;37.078;2022-09-09T02:29:42;4.89;75.09
70214;DHT22;60138;55.808;37.078;2022-09-09T02:32:22;4.81;74.80
70214;DHT22;60138;55.808;37.078;2022-09-09T02:34:55;4.76;74.70
70214;DHT22;60138;55.808;37.078;2022-09-09T02:37:24;4.69;75.18
70214;DHT22;60138;55.808;37.078;2022-09-09T02:39:53;4.67;74.73
70214;DHT22;60138;55.808;37.078;2022-09-09T02:42:21;4.61;75.45
70214;DHT22;60138;55.808;37.078;2022-09-09T02:44:48;4.57;75.40
70214;DHT22;60138;55.808;37.078;2022-09-09T02:47:30;4.52;75.22
70214;DHT22;60138;55.808;37.078;2022-09-09T02:58:08;4.38;76.09
70214;DHT22;60138;55.808;37.078;2022-09-09T03:00:35;4.35;75.89
70214;DHT22;60138;55.808;37.078;2022-09-09T03:03:03;4.33;76.39
70214;DHT22;60138;55.808;37.078;2022-09-09T03:05:31;4.30;78.13
70214;DHT22;60138;55.808;37.078;2022-09-09T03:07:58;4.28;76.99
70214;DHT22;60138;55.808;37.078;2022-09-09T03:10:24;4.27;76.89
70214;DHT22;60138;55.808;37.078;2022-09-09T03:12:50;4.22;77.69
70214;DHT22;60138;55.808;37.078;2022-09-09T03:15:16;4.22;77.37
70214;DHT22;60138;55.808;37.078;2022-09-09T03:17:42;4.19;78.04
70214;DHT22;60138;55.808;37.078;2022-09-09T03:20:09;4.19;78.34
70214;DHT22;60138;55.808;37.078;2022-09-09T03:22:36;4.17;77.68
70214;DHT22;60138;55.808;37.078;2022-09-09T03:25:02;4.16;77.44
70214;DHT22;60138;55.808;37.078;2022-09-09T03:27:29;4.15;77.53
70214;DHT22;60138;55.808;37.078;2022-09-09T03:29:56;4.14;77.37
70214;DHT22;60138;55.808;37.078;2022-09-09T03:32:24;4.13;77.40
70214;DHT22;60138;55.808;37.078;2022-09-09T03:34:50;4.13;77.23
70214;DHT22;60138;55.808;37.078;2022-09-09T03:37:16;4.13;78.21
70214;DHT22;60138;55.808;37.078;2022-09-09T03:39:42;4.14;77.83
70214;DHT22;60138;55.808;37.078;2022-09-09T03:42:09;4.12;77.61
70214;DHT22;60138;55.808;37.078;2022-09-09T03:44:37;4.14;77.15
70214;DHT22;60138;55.808;37.078;2022-09-09T03:47:03;4.14;77.31
70214;DHT22;60138;55.808;37.078;2022-09-09T03:49:29;4.15;77.33
70214;DHT22;60138;55.808;37.078;2022-09-09T03:51:56;4.19;77.39
70214;DHT22;60138;55.808;37.078;2022-09-09T03:54:23;4.19;78.67
70214;DHT22;60138;55.808;37.078;2022-09-09T03:56:49;4.22;77.96
70214;DHT22;60138;55.808;37.078;2022-09-09T03:59:15;4.26;78.14
70214;DHT22;60138;55.808;37.078;2022-09-09T04:01:41;4.27;78.36
70214;DHT22;60138;55.808;37.078;2022-09-09T04:04:08;4.31;78.79
70214;DHT22;60138;55.808;37.078;2022-09-09T04:06:33;4.34;78.51
70214;DHT22;60138;55.808;37.078;2022-09-09T04:09:00;4.36;79.29
70214;DHT22;60138;55.808;37.078;2022-09-09T04:11:26;4.41;78.95
70214;DHT22;60138;55.808;37.078;2022-09-09T04:13:54;4.44;79.17
70214;DHT22;60138;55.808;37.078;2022-09-09T04:16:19;4.49;79.06
70214;DHT22;60138;55.808;37.078;2022-09-09T04:18:45;4.53;79.05
70214;DHT22;60138;55.808;37.078;2022-09-09T04:21:13;4.54;78.49
70214;DHT22;60138;55.808;37.078;2022-09-09T04:23:39;4.58;77.04
70214;DHT22;60138;55.808;37.078;2022-09-09T04:26:05;4.61;77.20
70214;DHT22;60138;55.808;37.078;2022-09-09T04:28:35;4.63;77.77
70214;DHT22;60138;55.808;37.078;2022-09-09T04:31:14;4.66;78.74
70214;DHT22;60138;55.808;37.078;2022-09-09T04:33:40;4.71;77.98
70214;DHT22;60138;55.808;37.078;2022-09-09T04:36:07;4.74;78.18
70214;DHT22;60138;55.808;37.078;2022-09-09T04:38:33;4.79;78.97
70214;DHT22;60138;55.808;37.078;2022-09-09T04:41:00;4.84;78.56
70214;DHT22;60138;55.808;37.078;2022-09-09T04:43:26;4.93;78.87
70214;DHT22;60138;55.808;37.078;2022-09-09T04:45:52;4.96;78.63
70214;DHT22;60138;55.808;37.078;2022-09-09T04:48:21;5.03;78.26
70214;DHT22;60138;55.808;37.078;2022-09-09T04:51:01;5.09;78.42
70214;DHT22;60138;55.808;37.078;2022-09-09T04:53:28;5.16;78.57
70214;DHT22;60138;55.808;37.078;2022-09-09T04:56:08;5.20;78.28
70214;DHT22;60138;55.808;37.078;2022-09-09T04:58:40;5.26;77.90
70214;DHT22;60138;55.808;37.078;2022-09-09T05:01:14;5.34;78.68
70214;DHT22;60138;55.808;37.078;2022-09-09T05:03:43;5.42;78.49
70214;DHT22;60138;55.808;37.078;2022-09-09T05:06:14;5.52;77.85
70214;DHT22;60138;55.808;37.078;2022-09-09T05:08:42;5.59;77.31
70214;DHT22;60138;55.808;37.078;2022-09-09T05:11:26;5.65;77.14
70214;DHT22;60138;55.808;37.078;2022-09-09T05:13:56;5.72;76.74
70214;DHT22;60138;55.808;37.078;2022-09-09T05:16:22;5.79;76.19
70214;DHT22;60138;55.808;37.078;2022-09-09T05:18:48;5.81;76.73
70214;DHT22;60138;55.808;37.078;2022-09-09T05:21:15;5.92;76.07
70214;DHT22;60138;55.808;37.078;2022-09-09T05:23:41;5.94;75.92
70214;DHT22;60138;55.808;37.078;2022-09-09T05:26:11;5.96;76.40
70214;DHT22;60138;55.808;37.078;2022-09-09T05:28:38;6.08;75.68
70214;DHT22;60138;55.808;37.078;2022-09-09T05:31:06;6.11;75.55
70214;DHT22;60138;55.808;37.078;2022-09-09T05:33:34;6.22;75.39
70214;DHT22;60138;55.808;37.078;2022-09-09T05:36:12;6.34;75.03
70214;DHT22;60138;55.808;37.078;2022-09-09T05:38:39;6.41;74.55
70214;DHT22;60138;55.808;37.078;2022-09-09T05:41:07;6.44;74.25
70214;DHT22;60138;55.808;37.078;2022-09-09T05:43:33;6.51;73.93
70214;DHT22;60138;55.808;37.078;2022-09-09T05:46:05;6.61;74.24
70214;DHT22;60138;55.808;37.078;2022-09-09T05:48:34;6.78;73.35
70214;DHT22;60138;55.808;37.078;2022-09-09T05:51:01;6.94;72.34
70214;DHT22;60138;55.808;37.078;2022-09-09T05:53:27;7.13;71.50
70214;DHT22;60138;55.808;37.078;2022-09-09T05:56:01;7.22;70.91
70214;DHT22;60138;55.808;37.078;2022-09-09T05:58:27;7.24;70.96
70214;DHT22;60138;55.808;37.078;2022-09-09T06:01:00;7.27;69.82
70214;DHT22;60138;55.808;37.078;2022-09-09T06:03:26;7.34;70.46
70214;DHT22;60138;55.808;37.078;2022-09-09T06:06:03;7.40;70.10
70214;DHT22;60138;55.808;37.078;2022-09-09T06:08:29;7.39;69.91
70214;DHT22;60138;55.808;37.078;2022-09-09T06:11:01;7.39;69.83
70214;DHT22;60138;55.808;37.078;2022-09-09T06:13:29;7.39;69.98
70214;DHT22;60138;55.808;37.078;2022-09-09T06:15:54;7.44;70.01
70214;DHT22;60138;55.808;37.078;2022-09-09T06:18:20;7.48;69.90
70214;DHT22;60138;55.808;37.078;2022-09-09T06:21:02;7.54;69.74
70214;DHT22;60138;55.808;37.078;2022-09-09T06:23:29;7.63;69.45
70214;DHT22;60138;55.808;37.078;2022-09-09T06:26:21;7.68;68.55
70214;DHT22;60138;55.808;37.078;2022-09-09T06:28:50;7.85;67.41
70214;DHT22;60138;55.808;37.078;2022-09-09T06:31:17;7.89;68.01
70214;DHT22;60138;55.808;37.078;2022-09-09T06:33:44;7.92;65.40
70214;DHT22;60138;55.808;37.078;2022-09-09T06:36:13;8.06;66.22
70214;DHT22;60138;55.808;37.078;2022-09-09T06:38:39;8.23;67.31
70214;DHT22;60138;55.808;37.078;2022-09-09T06:41:05;8.41;67.10
70214;DHT22;60138;55.808;37.078;2022-09-09T06:43:32;8.49;66.72
70214;DHT22;60138;55.808;37.078;2022-09-09T06:48:27;8.52;66.51
70214;DHT22;60138;55.808;37.078;2022-09-09T06:53:34;8.73;65.62
70214;DHT22;60138;55.808;37.078;2022-09-09T06:58:37;8.87;65.74
70214;DHT22;60138;55.808;37.078;2022-09-09T07:01:07;8.96;65.81
70214;DHT22;60138;55.808;37.078;2022-09-09T07:03:34;9.08;65.64
70214;DHT22;60138;55.808;37.078;2022-09-09T07:06:01;9.19;63.96
70214;DHT22;60138;55.808;37.078;2022-09-09T07:08:28;9.30;63.64
70214;DHT22;60138;55.808;37.078;2022-09-09T07:10:54;9.33;63.83
70214;DHT22;60138;55.808;37.078;2022-09-09T07:13:24;9.38;63.91
70214;DHT22;60138;55.808;37.078;2022-09-09T07:15:51;9.46;62.06
70214;DHT22;60138;55.808;37.078;2022-09-09T07:18:18;9.53;63.41
70214;DHT22;60138;55.808;37.078;2022-09-09T07:20:52;9.60;63.52
70214;DHT22;60138;55.808;37.078;2022-09-09T07:23:18;9.56;61.92
70214;DHT22;60138;55.808;37.078;2022-09-09T07:25:45;9.55;61.63
70214;DHT22;60138;55.808;37.078;2022-09-09T07:28:11;9.56;63.08
70214;DHT22;60138;55.808;37.078;2022-09-09T07:30:37;9.56;62.41
70214;DHT22;60138;55.808;37.078;2022-09-09T07:33:02;9.62;62.89
70214;DHT22;60138;55.808;37.078;2022-09-09T07:35:29;9.71;56.70
70214;DHT22;60138;55.808;37.078;2022-09-09T07:37:54;9.96;60.53
70214;DHT22;60138;55.808;37.078;2022-09-09T07:40:20;10.33;61.52
70214;DHT22;60138;55.808;37.078;2022-09-09T07:42:46;10.70;60.45
70214;DHT22;60138;55.808;37.078;2022-09-09T07:45:12;11.02;60.46
70214;DHT22;60138;55.808;37.078;2022-09-09T07:47:38;11.26;61.03
70214;DHT22;60138;55.808;37.078;2022-09-09T07:50:04;11.51;63.58
70214;DHT22;60138;55.808;37.078;2022-09-09T07:52:31;11.53;61.88
70214;DHT22;60138;55.808;37.078;2022-09-09T07:55:00;11.40;61.90
70214;DHT22;60138;55.808;37.078;2022-09-09T07:57:26;11.31;60.03
70214;DHT22;60138;55.808;37.078;2022-09-09T07:59:53;11.31;59.57
70214;DHT22;60138;55.808;37.078;2022-09-09T08:02:19;11.34;60.06
70214;DHT22;60138;55.808;37.078;2022-09-09T08:04:45;11.53;60.32
70214;DHT22;60138;55.808;37.078;2022-09-09T08:07:10;11.72;58.80
70214;DHT22;60138;55.808;37.078;2022-09-09T08:09:43;11.92;57.61
70214;DHT22;60138;55.808;37.078;2022-09-09T08:12:19;12.10;56.18
70214;DHT22;60138;55.808;37.078;2022-09-09T08:14:44;12.33;56.86
70214;DHT22;60138;55.808;37.078;2022-09-09T08:17:10;12.50;56.90
70214;DHT22;60138;55.808;37.078;2022-09-09T08:19:36;12.65;56.74
70214;DHT22;60138;55.808;37.078;2022-09-09T08:22:07;12.75;56.81
70214;DHT22;60138;55.808;37.078;2022-09-09T08:24:34;12.75;55.78
70214;DHT22;60138;55.808;37.078;2022-09-09T08:27:00;12.72;52.82
70214;DHT22;60138;55.808;37.078;2022-09-09T08:29:26;12.73;53.91
70214;DHT22;60138;55.808;37.078;2022-09-09T08:31:55;12.71;53.65
70214;DHT22;60138;55.808;37.078;2022-09-09T08:34:22;12.70;54.43
70214;DHT22;60138;55.808;37.078;2022-09-09T08:36:50;12.80;54.97
70214;DHT22;60138;55.808;37.078;2022-09-09T08:39:21;12.96;55.00
70214;DHT22;60138;55.808;37.078;2022-09-09T08:55:20;12.99;49.94
70214;DHT22;60138;55.808;37.078;2022-09-09T08:57:48;12.84;54.87
70214;DHT22;60138;55.808;37.078;2022-09-09T09:00:15;12.80;53.43
70214;DHT22;60138;55.808;37.078;2022-09-09T09:05:39;12.73;52.10
70214;DHT22;60138;55.808;37.078;2022-09-09T09:08:17;12.81;52.44
70214;DHT22;60138;55.808;37.078;2022-09-09T09:10:49;13.07;53.20
70214;DHT22;60138;55.808;37.078;2022-09-09T09:13:42;13.43;53.46
70214;DHT22;60138;55.808;37.078;2022-09-09T09:18:40;13.52;55.62
70214;DHT22;60138;55.808;37.078;2022-09-09T09:21:25;13.40;48.43
70214;DHT22;60138;55.808;37.078;2022-09-09T09:24:00;13.19;50.84
70214;DHT22;60138;55.808;37.078;2022-09-09T09:26:34;13.01;47.10
70214;DHT22;60138;55.808;37.078;2022-09-09T09:29:11;12.95;47.50
70214;DHT22;60138;55.808;37.078;2022-09-09T09:31:37;12.96;47.37
70214;DHT22;60138;55.808;37.078;2022-09-09T09:34:03;13.03;51.69
70214;DHT22;60138;55.808;37.078;2022-09-09T09:36:55;13.09;49.19
70214;DHT22;60138;55.808;37.078;2022-09-09T09:39:30;13.26;48.38
70214;DHT22;60138;55.808;37.078;2022-09-09T09:42:11;13.40;48.43
70214;DHT22;60138;55.808;37.078;2022-09-09T09:44:37;13.52;47.11
70214;DHT22;60138;55.808;37.078;2022-09-09T09:47:22;13.61;46.14
70214;DHT22;60138;55.808;37.078;2022-09-09T09:49:57;13.75;43.96
70214;DHT22;60138;55.808;37.078;2022-09-09T09:52:28;13.83;43.18
70214;DHT22;60138;55.808;37.078;2022-09-09T09:54:57;13.98;50.03
70214;DHT22;60138;55.808;37.078;2022-09-09T09:57:29;14.07;51.24
70214;DHT22;60138;55.808;37.078;2022-09-09T10:00:25;13.93;45.96
70214;DHT22;60138;55.808;37.078;2022-09-09T10:03:01;13.97;49.50
70214;DHT22;60138;55.808;37.078;2022-09-09T10:05:31;14.14;45.74
70214;DHT22;60138;55.808;37.078;2022-09-09T10:08:09;14.15;45.77
70214;DHT22;60138;55.808;37.078;2022-09-09T10:13:49;14.43;45.71
70214;DHT22;60138;55.808;37.078;2022-09-09T10:16:31;14.48;46.15
70214;DHT22;60138;55.808;37.078;2022-09-09T10:19:00;14.62;45.10
70214;DHT22;60138;55.808;37.078;2022-09-09T10:30:07;14.95;42.31
70214;DHT22;60138;55.808;37.078;2022-09-09T10:35:52;14.71;50.95
70214;DHT22;60138;55.808;37.078;2022-09-09T10:38:45;14.53;47.45
70214;DHT22;60138;55.808;37.078;2022-09-09T10:41:24;14.51;48.60
70214;DHT22;60138;55.808;37.078;2022-09-09T10:55:17;14.19;45.55
70214;DHT22;60138;55.808;37.078;2022-09-09T10:57:51;14.11;49.03
70214;DHT22;60138;55.808;37.078;2022-09-09T11:02:43;14.09;49.79
70214;DHT22;60138;55.808;37.078;2022-09-09T11:05:20;13.94;44.97
70214;DHT22;60138;55.808;37.078;2022-09-09T11:07:55;13.90;45.41
70214;DHT22;60138;55.808;37.078;2022-09-09T11:10:39;14.08;46.93
70214;DHT22;60138;55.808;37.078;2022-09-09T11:13:17;14.48;46.70
70214;DHT22;60138;55.808;37.078;2022-09-09T11:15:48;14.65;37.72
70214;DHT22;60138;55.808;37.078;2022-09-09T11:18:22;14.56;44.22
70214;DHT22;60138;55.808;37.078;2022-09-09T11:20:53;14.47;47.99
70214;DHT22;60138;55.808;37.078;2022-09-09T11:23:35;14.33;49.40
70214;DHT22;60138;55.808;37.078;2022-09-09T11:26:04;14.13;49.05
70214;DHT22;60138;55.808;37.078;2022-09-09T11:28:48;13.94;43.50
70214;DHT22;60138;55.808;37.078;2022-09-09T11:40:23;14.89;46.34
70214;DHT22;60138;55.808;37.078;2022-09-09T11:42:49;16.65;46.42
70214;DHT22;60138;55.808;37.078;2022-09-09T11:45:27;18.52;44.68
70214;DHT22;60138;55.808;37.078;2022-09-09T11:47:55;19.55;38.05
70214;DHT22;60138;55.808;37.078;2022-09-09T11:52:50;18.07;44.35
70214;DHT22;60138;55.808;37.078;2022-09-09T11:55:30;17.54;34.66
70214;DHT22;60138;55.808;37.078;2022-09-09T12:00:40;16.51;41.17
70214;DHT22;60138;55.808;37.078;2022-09-09T12:03:31;15.86;43.98
70214;DHT22;60138;55.808;37.078;2022-09-09T12:05:53;15.28;42.78
70214;DHT22;60138;55.808;37.078;2022-09-09T12:08:26;15.12;40.77
70214;DHT22;60138;55.808;37.078;2022-09-09T12:10:59;16.62;42.58
70214;DHT22;60138;55.808;37.078;2022-09-09T12:13:26;18.09;36.69
70214;DHT22;60138;55.808;37.078;2022-09-09T12:15:56;18.97;32.65
70214;DHT22;60138;55.808;37.078;2022-09-09T12:21:03;20.13;28.90
70214;DHT22;60138;55.808;37.078;2022-09-09T12:23:40;20.86;28.52
70214;DHT22;60138;55.808;37.078;2022-09-09T12:27:03;20.60;38.20
70214;DHT22;60138;55.808;37.078;2022-09-09T12:37:37;19.18;35.24
70214;DHT22;60138;55.808;37.078;2022-09-09T12:42:32;17.43;42.36
70214;DHT22;60138;55.808;37.078;2022-09-09T12:45:03;16.88;43.05
70214;DHT22;60138;55.808;37.078;2022-09-09T12:48:01;18.20;42.23
70214;DHT22;60138;55.808;37.078;2022-09-09T12:50:35;19.94;38.30
70214;DHT22;60138;55.808;37.078;2022-09-09T12:53:32;21.48;35.21
70214;DHT22;60138;55.808;37.078;2022-09-09T12:56:07;22.61;41.52
70214;DHT22;60138;55.808;37.078;2022-09-09T12:58:36;23.49;40.45
70214;DHT22;60138;55.808;37.078;2022-09-09T13:01:04;24.30;38.69
70214;DHT22;60138;55.808;37.078;2022-09-09T13:03:30;24.92;24.22
70214;DHT22;60138;55.808;37.078;2022-09-09T13:06:11;24.71;29.56
70214;DHT22;60138;55.808;37.078;2022-09-09T13:08:37;25.09;35.09
70214;DHT22;60138;55.808;37.078;2022-09-09T13:11:07;24.66;33.02
70214;DHT22;60138;55.808;37.078;2022-09-09T13:13:37;23.62;32.44
70214;DHT22;60138;55.808;37.078;2022-09-09T13:16:05;22.39;31.15
70214;DHT22;60138;55.808;37.078;2022-09-09T13:18:36;21.03;25.23
70214;DHT22;60138;55.808;37.078;2022-09-09T13:21:02;20.37;30.54
70214;DHT22;60138;55.808;37.078;2022-09-09T13:23:33;19.77;33.25
70214;DHT22;60138;55.808;37.078;2022-09-09T13:26:02;19.21;28.55
70214;DHT22;60138;55.808;37.078;2022-09-09T13:28:30;18.70;29.11
70214;DHT22;60138;55.808;37.078;2022-09-09T13:31:03;18.40;34.49
70214;DHT22;60138;55.808;37.078;2022-09-09T13:33:32;18.03;36.38
70214;DHT22;60138;55.808;37.078;2022-09-09T13:36:09;17.84;37.79
70214;DHT22;60138;55.808;37.078;2022-09-09T13:41:23;17.30;37.14
70214;DHT22;60138;55.808;37.078;2022-09-09T13:43:50;16.98;39.56
70214;DHT22;60138;55.808;37.078;2022-09-09T13:46:35;16.74;40.69
70214;DHT22;60138;55.808;37.078;2022-09-09T13:51:42;16.43;37.44
70214;DHT22;60138;55.808;37.078;2022-09-09T13:54:10;16.44;39.21
70214;DHT22;60138;55.808;37.078;2022-09-09T13:56:39;16.42;41.06
70214;DHT22;60138;55.808;37.078;2022-09-09T13:59:08;16.41;41.19
70214;DHT22;60138;55.808;37.078;2022-09-09T14:01:34;16.37;42.40
70214;DHT22;60138;55.808;37.078;2022-09-09T14:04:00;16.21;39.94
70214;DHT22;60138;55.808;37.078;2022-09-09T14:06:26;16.03;41.00
70214;DHT22;60138;55.808;37.078;2022-09-09T14:08:52;15.77;36.21
70214;DHT22;60138;55.808;37.078;2022-09-09T14:11:18;15.55;38.30
70214;DHT22;60138;55.808;37.078;2022-09-09T14:13:44;15.21;39.71
70214;DHT22;60138;55.808;37.078;2022-09-09T14:16:09;14.81;36.94
70214;DHT22;60138;55.808;37.078;2022-09-09T14:18:36;14.58;37.72
70214;DHT22;60138;55.808;37.078;2022-09-09T14:21:02;14.43;38.55
70214;DHT22;60138;55.808;37.078;2022-09-09T14:23:28;14.22;38.10
70214;DHT22;60138;55.808;37.078;2022-09-09T14:25:53;14.07;39.40
70214;DHT22;60138;55.808;37.078;2022-09-09T14:28:19;13.91;41.18
70214;DHT22;60138;55.808;37.078;2022-09-09T14:30:44;13.77;40.29
70214;DHT22;60138;55.808;37.078;2022-09-09T14:33:12;13.66;41.42
70214;DHT22;60138;55.808;37.078;2022-09-09T14:35:38;13.55;41.52
70214;DHT22;60138;55.808;37.078;2022-09-09T14:38:04;13.46;41.68
70214;DHT22;60138;55.808;37.078;2022-09-09T14:40:30;13.43;42.98
70214;DHT22;60138;55.808;37.078;2022-09-09T14:42:56;13.39;42.83
70214;DHT22;60138;55.808;37.078;2022-09-09T14:45:23;13.36;43.42
70214;DHT22;60138;55.808;37.078;2022-09-09T14:47:49;13.36;43.29
70214;DHT22;60138;55.808;37.078;2022-09-09T14:50:15;13.36;43.95
70214;DHT22;60138;55.808;37.078;2022-09-09T14:52:42;13.33;42.25
70214;DHT22;60138;55.808;37.078;2022-09-09T14:55:08;13.30;44.25
70214;DHT22;60138;55.808;37.078;2022-09-09T14:57:33;13.25;44.29
70214;DHT22;60138;55.808;37.078;2022-09-09T14:59:59;13.20;43.54
70214;DHT22;60138;55.808;37.078;2022-09-09T15:02:25;13.16;44.16
70214;DHT22;60138;55.808;37.078;2022-09-09T15:04:50;13.11;44.19
70214;DHT22;60138;55.808;37.078;2022-09-09T15:07:16;13.07;45.27
70214;DHT22;60138;55.808;37.078;2022-09-09T15:09:42;12.99;44.69
70214;DHT22;60138;55.808;37.078;2022-09-09T15:12:08;12.91;45.55
70214;DHT22;60138;55.808;37.078;2022-09-09T15:14:33;12.87;45.37
70214;DHT22;60138;55.808;37.078;2022-09-09T15:16:59;12.80;45.70
70214;DHT22;60138;55.808;37.078;2022-09-09T15:19:25;12.73;45.64
70214;DHT22;60138;55.808;37.078;2022-09-09T15:21:50;12.66;45.86
70214;DHT22;60138;55.808;37.078;2022-09-09T15:24:16;12.58;46.09
70214;DHT22;60138;55.808;37.078;2022-09-09T15:26:42;12.49;46.28
70214;DHT22;60138;55.808;37.078;2022-09-09T15:29:08;12.44;46.38
70214;DHT22;60138;55.808;37.078;2022-09-09T15:31:34;12.36;46.55
70214;DHT22;60138;55.808;37.078;2022-09-09T15:34:04;12.30;46.83
70214;DHT22;60138;55.808;37.078;2022-09-09T15:36:39;12.25;46.79
70214;DHT22;60138;55.808;37.078;2022-09-09T15:39:07;12.15;47.28
70214;DHT22;60138;55.808;37.078;2022-09-09T15:41:33;12.08;47.05
70214;DHT22;60138;55.808;37.078;2022-09-09T15:44:00;12.04;47.31
70214;DHT22;60138;55.808;37.078;2022-09-09T15:48:55;11.86;48.03
70214;DHT22;60138;55.808;37.078;2022-09-09T15:51:22;11.78;49.80
70214;DHT22;60138;55.808;37.078;2022-09-09T15:53:47;11.69;50.69
70214;DHT22;60138;55.808;37.078;2022-09-09T15:56:13;11.57;51.43
70214;DHT22;60138;55.808;37.078;2022-09-09T15:58:39;11.47;51.84
70214;DHT22;60138;55.808;37.078;2022-09-09T16:01:06;11.36;52.11
70214;DHT22;60138;55.808;37.078;2022-09-09T16:03:42;11.26;52.04
70214;DHT22;60138;55.808;37.078;2022-09-09T16:06:09;11.17;52.35
70214;DHT22;60138;55.808;37.078;2022-09-09T16:08:37;11.09;53.02
70214;DHT22;60138;55.808;37.078;2022-09-09T16:11:14;10.97;53.31
70214;DHT22;60138;55.808;37.078;2022-09-09T16:13:42;10.85;53.46
70214;DHT22;60138;55.808;37.078;2022-09-09T16:16:10;10.77;54.00
70214;DHT22;60138;55.808;37.078;2022-09-09T16:18:41;10.69;53.90
70214;DHT22;60138;55.808;37.078;2022-09-09T16:21:08;10.58;53.63
70214;DHT22;60138;55.808;37.078;2022-09-09T16:23:38;10.51;53.95
70214;DHT22;60138;55.808;37.078;2022-09-09T16:26:03;10.43;54.49
70214;DHT22;60138;55.808;37.078;2022-09-09T16:28:29;10.36;54.55
70214;DHT22;60138;55.808;37.078;2022-09-09T16:30:55;10.25;54.57
70214;DHT22;60138;55.808;37.078;2022-09-09T16:33:21;10.19;54.97
70214;DHT22;60138;55.808;37.078;2022-09-09T16:35:46;10.12;55.26
70214;DHT22;60138;55.808;37.078;2022-09-09T16:38:12;10.03;55.34
70214;DHT22;60138;55.808;37.078;2022-09-09T16:40:38;9.95;55.31
70214;DHT22;60138;55.808;37.078;2022-09-09T16:43:04;9.85;55.79
70214;DHT22;60138;55.808;37.078;2022-09-09T16:45:30;9.80;56.39
70214;DHT22;60138;55.808;37.078;2022-09-09T16:47:55;9.70;56.40
70214;DHT22;60138;55.808;37.078;2022-09-09T16:50:21;9.63;56.73
70214;DHT22;60138;55.808;37.078;2022-09-09T16:52:47;9.55;56.87
70214;DHT22;60138;55.808;37.078;2022-09-09T16:55:12;9.48;57.01
70214;DHT22;60138;55.808;37.078;2022-09-09T16:57:38;9.40;57.37
70214;DHT22;60138;55.808;37.078;2022-09-09T17:00:04;9.34;57.59
70214;DHT22;60138;55.808;37.078;2022-09-09T17:02:30;9.25;57.80
70214;DHT22;60138;55.808;37.078;2022-09-09T17:04:56;9.20;58.19
70214;DHT22;60138;55.808;37.078;2022-09-09T17:07:22;9.14;58.48
70214;DHT22;60138;55.808;37.078;2022-09-09T17:09:47;9.09;58.27
70214;DHT22;60138;55.808;37.078;2022-09-09T17:12:13;9.02;58.68
70214;DHT22;60138;55.808;37.078;2022-09-09T17:14:39;8.94;59.00
70214;DHT22;60138;55.808;37.078;2022-09-09T17:17:04;8.87;58.99
70214;DHT22;60138;55.808;37.078;2022-09-09T17:19:30;8.80;59.27
70214;DHT22;60138;55.808;37.078;2022-09-09T17:21:56;8.73;59.70
70214;DHT22;60138;55.808;37.078;2022-09-09T17:24:22;8.67;59.88
70214;DHT22;60138;55.808;37.078;2022-09-09T17:26:48;8.64;59.96
70214;DHT22;60138;55.808;37.078;2022-09-09T17:29:14;8.59;60.45
70214;DHT22;60138;55.808;37.078;2022-09-09T17:31:40;8.53;60.41
70214;DHT22;60138;55.808;37.078;2022-09-09T17:34:05;8.49;60.71
70214;DHT22;60138;55.808;37.078;2022-09-09T17:36:33;8.45;60.89
70214;DHT22;60138;55.808;37.078;2022-09-09T17:38:59;8.39;60.74
70214;DHT22;60138;55.808;37.078;2022-09-09T17:41:28;8.35;60.80
70214;DHT22;60138;55.808;37.078;2022-09-09T17:43:54;8.32;60.96
70214;DHT22;60138;55.808;37.078;2022-09-09T17:46:28;8.27;61.16
70214;DHT22;60138;55.808;37.078;2022-09-09T17:48:57;8.22;61.13